createdAt,value
2022-10-05T00:05:42.525Z,25.30
2022-10-05T00:15:49.641Z,23.80
2022-10-05T00:25:55.717Z,25.90
2022-10-05T00:36:01.782Z,26.30
2022-10-05T00:46:12.295Z,24.00
2022-10-05T00:56:21.136Z,28.20
2022-10-05T01:06:30.158Z,26.70
2022-10-05T01:16:46.858Z,24.90
2022-10-05T01:27:08.560Z,24.20
2022-10-05T01:37:28.047Z,24.10
2022-10-05T01:47:44.952Z,25.10
2022-10-05T01:58:13.976Z,22.30
2022-10-05T02:08:20.009Z,24.00
2022-10-05T02:18:29.551Z,22.70
2022-10-05T02:28:47.574Z,23.90
2022-10-05T02:38:56.802Z,26.40
2022-10-05T02:49:11.655Z,28.10
2022-10-05T02:59:23.061Z,25.90
2022-10-05T03:09:32.817Z,25.80
2022-10-05T03:19:38.809Z,21.70
2022-10-05T03:29:51.857Z,21.00
2022-10-05T03:40:15.595Z,21.20
2022-10-05T03:50:41.762Z,28.30
2022-10-05T04:00:49.498Z,31.40
2022-10-05T04:10:57.350Z,35.10
2022-10-05T04:21:26.821Z,26.20
2022-10-05T04:31:49.894Z,30.70
2022-10-05T04:42:14.556Z,30.70
2022-10-05T04:52:35.710Z,26.70
2022-10-05T05:03:04.792Z,33.50
2022-10-05T05:13:20.181Z,33.10
2022-10-05T05:23:29.192Z,29.70
2022-10-05T05:33:44.603Z,34.60
2022-10-05T05:44:03.699Z,33.00
2022-10-05T05:54:26.276Z,33.80
2022-10-05T06:04:52.576Z,37.70
2022-10-05T06:15:04.572Z,36.00
2022-10-05T06:25:13.657Z,28.90
2022-10-05T06:35:38.494Z,25.30
2022-10-05T06:45:57.852Z,24.90
2022-10-05T06:56:13.394Z,24.10
2022-10-05T07:06:25.474Z,23.40
2022-10-05T07:16:31.619Z,22.90
2022-10-05T07:26:47.978Z,22.40
2022-10-05T07:37:12.987Z,21.70
2022-10-05T07:47:36.601Z,16.70
2022-10-05T07:57:48.821Z,13.60
2022-10-05T08:07:57.959Z,16.80
2022-10-05T08:18:12.348Z,13.50
2022-10-05T08:28:24.523Z,15.70
2022-10-05T08:38:32.835Z,15.40
2022-10-05T08:48:57.681Z,17.10
2022-10-05T08:59:03.764Z,13.70
2022-10-05T09:09:19.562Z,15.90
2022-10-05T09:19:44.543Z,12.70
2022-10-05T09:30:11.958Z,19.40
2022-10-05T09:40:18.122Z,15.20
2022-10-05T09:50:39.478Z,16.30
2022-10-05T10:00:59.478Z,14.80
2022-10-05T10:11:22.435Z,17.30
2022-10-05T10:21:47.627Z,14.40
2022-10-05T10:32:13.104Z,13.70
2022-10-05T10:42:38.627Z,22.20
2022-10-05T10:53:04.986Z,14.90
2022-10-05T11:03:35.266Z,16.60
2022-10-05T11:13:44.097Z,15.90
2022-10-05T11:24:08.719Z,13.10
2022-10-05T11:34:50.744Z,12.90
2022-10-05T11:45:09.801Z,13.00
2022-10-05T11:55:16.103Z,12.20
2022-10-05T12:05:42.431Z,13.40
2022-10-05T12:15:55.510Z,13.60
2022-10-05T12:26:07.621Z,11.20
2022-10-05T12:36:16.456Z,12.50
2022-10-05T12:46:25.413Z,13.50
2022-10-05T12:56:50.212Z,11.60
2022-10-05T13:07:08.670Z,11.90
2022-10-05T13:17:14.788Z,13.40
2022-10-05T13:27:41.207Z,11.40
2022-10-05T13:38:05.934Z,12.40
2022-10-05T13:48:22.887Z,12.20
2022-10-05T13:58:36.301Z,15.00
2022-10-05T14:09:02.654Z,12.90
2022-10-05T14:19:08.644Z,13.60
2022-10-05T14:29:25.234Z,11.00
2022-10-05T14:39:35.215Z,11.90
2022-10-05T14:49:49.498Z,11.50
2022-10-05T15:00:17.686Z,11.00
2022-10-05T15:10:44.131Z,12.00
2022-10-05T15:21:11.158Z,12.70
2022-10-05T15:31:24.885Z,14.40
2022-10-05T15:41:36.608Z,15.10
2022-10-05T15:51:55.715Z,16.50
2022-10-05T16:02:05.008Z,19.50
2022-10-05T16:12:10.910Z,21.70
2022-10-05T16:22:19.926Z,15.10
2022-10-05T16:32:34.819Z,17.00
2022-10-05T16:43:00.595Z,18.60
2022-10-05T16:53:18.808Z,15.20
2022-10-05T17:03:43.638Z,15.80
2022-10-05T17:13:52.779Z,19.90
2022-10-05T17:24:17.086Z,22.60
2022-10-05T17:34:23.075Z,21.80
2022-10-05T17:44:29.344Z,27.60
2022-10-05T17:55:06.320Z,28.20
2022-10-05T18:05:13.604Z,21.70
2022-10-05T18:15:25.877Z,23.80
2022-10-05T18:25:44.855Z,28.10
2022-10-05T18:35:56.912Z,30.10
2022-10-05T18:46:15.325Z,26.80
2022-10-05T18:56:24.570Z,29.00
2022-10-05T19:06:33.692Z,27.00
2022-10-05T19:16:58.463Z,24.60
2022-10-05T19:27:16.537Z,25.50
2022-10-05T19:37:32.188Z,28.00
2022-10-05T19:47:51.554Z,31.80
2022-10-05T19:58:01.057Z,30.30
2022-10-05T20:08:07.469Z,32.00
2022-10-05T20:18:51.232Z,26.60
2022-10-05T20:28:57.287Z,21.70
2022-10-05T20:39:03.354Z,21.50
2022-10-05T20:49:11.766Z,22.50
2022-10-05T20:59:17.960Z,24.50
2022-10-05T21:09:24.114Z,23.60
2022-10-05T21:19:30.690Z,27.90
2022-10-05T21:29:37.701Z,23.10
2022-10-05T21:39:43.862Z,23.80
2022-10-05T21:49:49.941Z,28.60
2022-10-05T21:59:56.178Z,30.70
2022-10-05T22:10:03.073Z,30.40
2022-10-05T22:20:12.650Z,28.90
2022-10-05T22:30:18.844Z,27.80
2022-10-05T22:40:24.924Z,24.30
2022-10-05T22:50:31.312Z,23.40
2022-10-05T23:00:58.566Z,24.90
2022-10-05T23:11:09.488Z,24.90
2022-10-05T23:21:15.758Z,27.50
2022-10-05T23:31:23.892Z,22.80
2022-10-05T23:41:29.995Z,24.20
2022-10-05T23:51:36.250Z,20.40
